メインページ
METAR-TAF:

METAR-TAF

空港 :

パゴパゴ国際空港

パゴパゴ, 合衆国領有小離島

緯度: 14-20S, 経度: 170-43W, 海抜: 3m

現時点の気象観測

当レポートは43分前の13:50(UTC)に作成
の風 10kt
気温 28°C
湿度 89%
気圧 1011 hPa
視程: 16.1km
高度1700ftの雲はほとんどない
高度3700ftの雲は散在している
高度10000ftの千切れ雲あり

METAR: NSTU 251350Z 09010KT 10SM FEW017 SCT037 BKN100 28/26 A2986 RMK SLP112 T02780256

時間: 03:33 (14:33 UTC)

予報

当レポートは2時間56分前の11:37(UTC)に作成
予報は25日の 12時(UTC)から 26日の 12時(UTC)まで有効
の風 10kt
視程: 10km
高度2000ftの雲は散在している
高度4000ftの雲は散在している
高度20000ftの雲は散在している
近辺でにわか雨

TAF: NSTU 251137Z 2512/2612 10010KT P6SM VCSH SCT020 SCT040 SCT200

4,000以上の空港の気象観測と天気予報(METAR報とTAF報)

利用可能な観測所は地図上に黄色い丸と赤い丸で示す。

丸の上にカーソルを重ねると観測所名を参照できる。

次にクリックすると気象観測と天気予報を参照できる。

マップの切り替え:黒色「×」印の緑ボタンをクリックして拡大、「-」印の緑ボタンをクリックして縮小、緑色の三角印をクリックして隣りの地図に切り替え


METAR-TAF: